createdAt,value
2019-02-10T00:00:56.360Z,3.00
2019-02-10T00:03:31.744Z,2.77
2019-02-10T00:06:06.572Z,3.13
2019-02-10T00:08:40.581Z,3.83
2019-02-10T00:11:14.590Z,3.87
2019-02-10T00:13:50.647Z,3.63
2019-02-10T00:16:26.369Z,3.30
2019-02-10T00:19:00.367Z,3.23
2019-02-10T00:21:34.397Z,2.87
2019-02-10T00:24:08.396Z,2.80
2019-02-10T00:26:43.769Z,3.03
2019-02-10T00:29:25.419Z,3.10
2019-02-10T00:31:59.978Z,2.63
2019-02-10T00:34:35.631Z,2.63
2019-02-10T00:37:11.691Z,2.80
2019-02-10T00:39:46.424Z,2.40
2019-02-10T00:42:20.931Z,2.53
2019-02-10T00:44:55.762Z,2.90
2019-02-10T00:50:59.896Z,2.80
2019-02-10T00:53:34.723Z,2.20
2019-02-10T00:56:08.938Z,2.57
2019-02-10T00:58:43.767Z,2.17
2019-02-10T01:04:36.022Z,2.23
2019-02-10T01:07:12.700Z,2.10
2019-02-10T01:09:49.423Z,2.37
2019-02-10T01:12:24.427Z,2.10
2019-02-10T01:14:58.437Z,2.53
2019-02-10T01:21:14.451Z,2.17
2019-02-10T01:27:29.437Z,2.40
2019-02-10T01:30:03.445Z,2.27
2019-02-10T01:32:39.887Z,2.17
2019-02-10T01:35:14.426Z,2.67
2019-02-10T01:37:47.701Z,2.20
2019-02-10T01:40:23.351Z,2.43
2019-02-10T01:43:01.412Z,2.23
2019-02-10T01:45:34.644Z,1.97
2019-02-10T01:48:10.427Z,2.20
2019-02-10T01:50:44.475Z,2.30
2019-02-10T01:53:18.927Z,2.53
2019-02-10T01:55:53.424Z,2.50
2019-02-10T01:58:27.766Z,2.60
2019-02-10T02:01:02.428Z,2.43
2019-02-10T02:03:37.010Z,2.60
2019-02-10T02:06:11.635Z,2.20
2019-02-10T02:08:45.645Z,2.60
2019-02-10T02:11:19.656Z,2.50
2019-02-10T02:14:03.700Z,2.30
2019-02-10T02:16:38.733Z,2.50
2019-02-10T02:19:14.438Z,2.40
2019-02-10T02:21:48.436Z,2.23
2019-02-10T02:24:22.430Z,2.10
2019-02-10T02:26:56.438Z,2.60
2019-02-10T02:29:30.009Z,2.60
2019-02-10T02:32:04.687Z,2.90
2019-02-10T02:34:38.642Z,2.80
2019-02-10T02:37:13.270Z,2.43
2019-02-10T02:39:48.914Z,2.80
2019-02-10T02:42:23.431Z,2.50
2019-02-10T02:44:58.985Z,2.57
2019-02-10T02:47:33.810Z,2.47
2019-02-10T02:50:08.639Z,2.33
2019-02-10T02:52:44.904Z,2.60
2019-02-10T02:55:19.433Z,2.10
2019-02-10T03:00:57.648Z,2.50
2019-02-10T03:07:18.121Z,2.70
2019-02-10T03:09:49.434Z,2.43
2019-02-10T03:12:23.934Z,2.13
2019-02-10T03:14:58.443Z,1.90
2019-02-10T03:17:32.977Z,2.00
2019-02-10T03:23:47.438Z,1.73
2019-02-10T03:30:03.446Z,1.97
2019-02-10T03:32:37.453Z,2.40
2019-02-10T03:35:13.430Z,2.20
2019-02-10T03:41:28.450Z,2.23
2019-02-10T03:47:44.021Z,2.30
2019-02-10T03:50:19.670Z,2.40
2019-02-10T03:52:55.446Z,2.20
2019-02-10T03:55:29.942Z,2.43
2019-02-10T03:58:04.770Z,1.90
2019-02-10T04:00:39.454Z,2.10
2019-02-10T04:03:15.657Z,2.20
2019-02-10T04:05:51.719Z,1.90
2019-02-10T04:08:26.953Z,1.90
2019-02-10T04:11:02.463Z,1.87
2019-02-10T04:13:38.658Z,2.20
2019-02-10T04:16:14.920Z,1.90
2019-02-10T04:18:49.451Z,2.17
2019-02-10T04:21:23.964Z,2.00
2019-02-10T04:23:58.455Z,1.90
2019-02-10T04:26:33.455Z,1.53
2019-02-10T04:29:09.063Z,2.00
2019-02-10T04:31:43.687Z,1.90
2019-02-10T04:34:18.721Z,1.83
2019-02-10T04:36:54.989Z,1.90
2019-02-10T04:39:30.461Z,1.97
2019-02-10T04:42:04.462Z,2.03
2019-02-10T04:44:38.473Z,1.80
2019-02-10T04:47:13.887Z,1.90
2019-02-10T04:49:52.472Z,1.97
2019-02-10T04:52:27.027Z,2.10
2019-02-10T04:55:01.479Z,1.57
2019-02-10T04:57:36.686Z,1.50
2019-02-10T05:00:12.947Z,1.50
2019-02-10T05:02:48.463Z,1.50
2019-02-10T05:05:22.467Z,1.27
2019-02-10T05:07:56.826Z,1.50
2019-02-10T05:10:32.466Z,1.30
2019-02-10T05:13:08.729Z,1.80
2019-02-10T05:15:45.810Z,1.60
2019-02-10T05:22:01.422Z,2.67
2019-02-10T05:28:17.846Z,2.10
2019-02-10T05:30:55.743Z,2.20
2019-02-10T05:33:32.007Z,2.33
2019-02-10T05:39:35.932Z,2.00
2019-02-10T05:42:10.768Z,2.60
2019-02-10T05:44:45.805Z,2.53
2019-02-10T05:47:24.871Z,2.80
2019-02-10T05:50:04.880Z,2.47
2019-02-10T05:56:20.881Z,2.60
2019-02-10T05:58:56.958Z,3.20
2019-02-10T06:05:26.498Z,2.60
2019-02-10T06:08:02.938Z,2.50
2019-02-10T06:10:37.969Z,2.10
2019-02-10T06:13:13.618Z,2.40
2019-02-10T06:15:54.509Z,2.30
2019-02-10T06:18:31.262Z,2.37
2019-02-10T06:21:06.764Z,2.30
2019-02-10T06:23:48.504Z,2.30
2019-02-10T06:29:51.230Z,2.10
2019-02-10T06:32:26.127Z,2.43
2019-02-10T06:35:01.164Z,1.70
2019-02-10T06:37:36.809Z,1.50
2019-02-10T06:40:13.481Z,1.67
2019-02-10T06:42:49.038Z,1.70
2019-02-10T06:45:23.342Z,2.30
2019-02-10T06:48:00.219Z,2.90
2019-02-10T06:50:34.230Z,2.40
2019-02-10T06:53:08.239Z,2.50
2019-02-10T06:55:43.014Z,1.93
2019-02-10T06:58:18.339Z,1.80
2019-02-10T07:01:13.045Z,2.13
2019-02-10T07:03:53.030Z,2.20
2019-02-10T07:06:28.596Z,2.17
2019-02-10T07:09:03.426Z,2.20
2019-02-10T07:11:41.043Z,2.23
2019-02-10T07:14:39.502Z,2.00
2019-02-10T07:17:54.472Z,1.60
2019-02-10T07:20:59.613Z,1.80
2019-02-10T07:27:06.613Z,2.30
2019-02-10T07:30:11.749Z,2.47
2019-02-10T07:32:50.267Z,1.97
2019-02-10T07:36:02.896Z,2.00
2019-02-10T07:42:37.435Z,2.13
2019-02-10T07:45:44.207Z,2.40
2019-02-10T07:48:45.453Z,1.80
2019-02-10T07:52:04.804Z,1.97
2019-02-10T07:55:12.803Z,2.00
2019-02-10T07:58:24.012Z,1.93
2019-02-10T08:01:28.800Z,2.30
2019-02-10T08:04:36.802Z,2.40
2019-02-10T08:07:39.019Z,1.97
2019-02-10T08:14:19.405Z,2.40
2019-02-10T08:20:46.273Z,2.70
2019-02-10T08:27:05.804Z,1.93
2019-02-10T08:33:49.016Z,2.10
2019-02-10T08:36:39.410Z,1.83
2019-02-10T08:39:37.818Z,1.67
2019-02-10T08:42:50.711Z,1.70
2019-02-10T08:46:00.833Z,1.60
2019-02-10T08:49:10.131Z,1.80
2019-02-10T08:52:23.334Z,2.17
2019-02-10T08:55:09.220Z,2.20
2019-02-10T08:57:50.731Z,2.20
2019-02-10T09:00:25.021Z,2.53
2019-02-10T09:02:59.031Z,2.70
2019-02-10T09:05:35.810Z,2.87
2019-02-10T09:11:03.830Z,2.70
2019-02-10T09:13:41.284Z,2.90
2019-02-10T09:16:17.348Z,3.03
2019-02-10T09:18:54.012Z,2.70
2019-02-10T09:21:28.910Z,2.50
2019-02-10T09:24:04.082Z,2.67
2019-02-10T09:30:06.821Z,2.30
2019-02-10T09:32:41.414Z,2.43
2019-02-10T09:35:19.101Z,2.43
2019-02-10T09:37:54.825Z,2.03
2019-02-10T09:50:51.831Z,3.40
2019-02-10T09:53:27.203Z,3.03
2019-02-10T09:59:30.315Z,3.00
2019-02-10T10:05:37.111Z,2.80
2019-02-10T10:11:39.838Z,2.43
2019-02-10T10:14:17.713Z,2.90
2019-02-10T10:16:53.158Z,3.20
2019-02-10T10:19:29.852Z,2.80
2019-02-10T10:22:05.065Z,2.57
2019-02-10T10:24:40.303Z,2.30
2019-02-10T10:27:14.848Z,1.80
2019-02-10T10:33:31.948Z,1.97
2019-02-10T10:36:08.440Z,2.03
2019-02-10T10:38:46.330Z,2.30
2019-02-10T10:41:22.184Z,2.00
2019-02-10T10:43:59.063Z,2.67
2019-02-10T10:46:35.118Z,4.60
2019-02-10T10:49:10.766Z,2.40
2019-02-10T10:51:45.277Z,2.50
2019-02-10T10:54:19.604Z,2.83
2019-02-10T10:56:54.023Z,3.30
2019-02-10T10:59:29.672Z,2.60
2019-02-10T11:02:04.531Z,2.33
2019-02-10T11:04:39.128Z,2.70
2019-02-10T11:07:15.798Z,1.90
2019-02-10T11:09:50.829Z,1.50
2019-02-10T11:12:27.308Z,1.77
2019-02-10T11:15:05.802Z,1.50
2019-02-10T11:17:42.283Z,2.20
2019-02-10T11:23:20.640Z,2.10
2019-02-10T11:25:56.367Z,2.33
2019-02-10T11:28:29.856Z,2.80
2019-02-10T11:31:06.118Z,2.40
2019-02-10T11:33:43.200Z,2.60
2019-02-10T11:39:34.022Z,2.37
2019-02-10T11:45:49.012Z,2.03
2019-02-10T11:48:27.115Z,2.90
2019-02-10T11:54:13.843Z,3.20
2019-02-10T12:00:17.639Z,1.43
2019-02-10T12:06:19.858Z,1.40
2019-02-10T12:08:53.869Z,1.50
2019-02-10T12:11:29.517Z,2.03
2019-02-10T12:17:10.921Z,1.70
2019-02-10T12:23:27.961Z,2.47
2019-02-10T12:26:04.020Z,2.00
2019-02-10T12:28:45.196Z,1.80
2019-02-10T12:31:23.303Z,2.23
2019-02-10T12:33:58.138Z,2.00
2019-02-10T12:36:35.225Z,2.10
2019-02-10T12:42:39.659Z,3.47
2019-02-10T12:45:14.986Z,1.47
2019-02-10T12:47:50.661Z,1.40
2019-02-10T12:50:33.864Z,1.80
2019-02-10T12:56:48.849Z,1.10
2019-02-10T13:02:51.664Z,1.57
2019-02-10T13:08:42.700Z,1.60
2019-02-10T13:14:44.868Z,1.60
2019-02-10T13:20:49.206Z,1.67
2019-02-10T13:23:24.240Z,1.83
2019-02-10T13:29:04.655Z,1.40
2019-02-10T13:35:12.668Z,1.50
2019-02-10T13:37:49.667Z,1.60
2019-02-10T13:44:20.277Z,1.87
2019-02-10T13:50:23.672Z,1.70
2019-02-10T13:56:28.671Z,1.80
2019-02-10T14:02:32.065Z,1.90
2019-02-10T14:08:25.144Z,1.70
2019-02-10T14:14:37.597Z,1.63
2019-02-10T14:20:53.070Z,1.70
2019-02-10T14:26:45.121Z,1.43
2019-02-10T14:29:20.975Z,1.50
2019-02-10T14:31:57.031Z,1.57
2019-02-10T14:34:34.317Z,1.60
2019-02-10T14:37:09.147Z,1.60
2019-02-10T14:39:44.180Z,1.30
2019-02-10T14:42:18.649Z,1.37
2019-02-10T14:44:53.019Z,1.27
2019-02-10T14:47:27.681Z,1.40
2019-02-10T14:50:01.860Z,1.20
2019-02-10T14:52:35.867Z,1.00
2019-02-10T14:55:11.310Z,1.10
2019-02-10T14:57:47.162Z,1.30
2019-02-10T15:00:22.195Z,1.30
2019-02-10T15:02:57.685Z,1.20
2019-02-10T15:05:31.673Z,1.10
2019-02-10T15:11:11.205Z,1.23
2019-02-10T15:13:45.012Z,1.27
2019-02-10T15:16:19.669Z,1.37
2019-02-10T15:22:22.667Z,1.20
2019-02-10T15:28:06.196Z,1.10
2019-02-10T15:34:08.895Z,1.10
2019-02-10T15:36:44.953Z,1.20
2019-02-10T15:39:19.675Z,1.10
2019-02-10T15:41:55.225Z,1.10
2019-02-10T15:44:32.305Z,1.30
2019-02-10T15:50:10.669Z,1.10
2019-02-10T15:52:45.266Z,1.30
2019-02-10T15:55:21.931Z,1.50
2019-02-10T15:57:59.668Z,1.60
2019-02-10T16:00:35.275Z,2.03
2019-02-10T16:03:10.922Z,1.90
2019-02-10T16:05:48.682Z,2.10
2019-02-10T16:08:28.161Z,2.37
2019-02-10T16:11:03.674Z,2.27
2019-02-10T16:13:38.671Z,2.27
2019-02-10T16:16:13.054Z,2.40
2019-02-10T16:18:48.089Z,2.20
2019-02-10T16:21:23.673Z,2.30
2019-02-10T16:23:59.999Z,1.87
2019-02-10T16:26:35.674Z,1.80
2019-02-10T16:29:10.886Z,1.40
2019-02-10T16:31:47.350Z,1.00
2019-02-10T16:34:24.030Z,1.00
2019-02-10T16:37:00.080Z,1.07
2019-02-10T16:39:36.139Z,1.10
2019-02-10T16:42:11.172Z,0.70
2019-02-10T16:44:46.674Z,0.80
2019-02-10T16:47:22.616Z,0.90
2019-02-10T16:49:56.888Z,1.20
2019-02-10T16:52:34.176Z,0.70
2019-02-10T16:55:11.052Z,0.90
2019-02-10T16:57:49.676Z,0.80
2019-02-10T17:00:25.675Z,0.80
2019-02-10T17:03:01.065Z,0.80
2019-02-10T17:05:43.883Z,0.80
2019-02-10T17:08:19.681Z,0.90
2019-02-10T17:10:54.682Z,0.80
2019-02-10T17:13:30.676Z,0.87
2019-02-10T17:16:05.495Z,1.00
2019-02-10T17:18:39.707Z,0.80
2019-02-10T17:21:16.130Z,0.80
2019-02-10T17:23:50.679Z,1.90
2019-02-10T17:26:24.968Z,1.30
2019-02-10T17:29:00.682Z,0.90
2019-02-10T17:34:53.077Z,0.90
2019-02-10T17:37:26.709Z,0.70
2019-02-10T17:40:02.327Z,0.70
2019-02-10T17:42:36.686Z,1.07
2019-02-10T17:45:12.196Z,0.90
2019-02-10T17:47:46.683Z,1.23
2019-02-10T17:50:21.230Z,0.90
2019-02-10T17:52:56.701Z,0.80
2019-02-10T17:55:30.888Z,0.90
2019-02-10T17:58:07.151Z,1.03
2019-02-10T18:00:45.695Z,1.10
2019-02-10T18:03:20.907Z,0.80
2019-02-10T18:05:57.719Z,1.00
2019-02-10T18:08:32.688Z,0.80
2019-02-10T18:11:06.686Z,0.80
2019-02-10T18:13:41.243Z,1.00
2019-02-10T18:16:43.310Z,0.90
2019-02-10T18:23:14.709Z,0.80
2019-02-10T18:26:07.535Z,0.90
2019-02-10T18:35:53.698Z,1.00
2019-02-10T18:38:54.918Z,0.90
2019-02-10T18:45:15.697Z,1.20
2019-02-10T18:48:11.697Z,0.90
2019-02-10T18:50:53.970Z,0.93
2019-02-10T18:53:46.208Z,0.90
2019-02-10T18:56:44.699Z,0.77
2019-02-10T18:59:38.699Z,0.90
2019-02-10T19:05:46.900Z,0.83
2019-02-10T19:08:32.175Z,0.97
2019-02-10T19:11:20.009Z,0.90
2019-02-10T19:14:06.927Z,2.17
2019-02-10T19:17:16.674Z,0.83
2019-02-10T19:20:18.716Z,1.00
2019-02-10T19:23:09.130Z,0.80
2019-02-10T19:25:55.424Z,0.97
2019-02-10T19:28:51.361Z,0.90
2019-02-10T19:31:45.040Z,1.20
2019-02-10T19:34:40.954Z,0.87
2019-02-10T19:37:34.831Z,0.90
2019-02-10T19:40:33.197Z,3.50
2019-02-10T19:43:26.764Z,0.90
2019-02-10T19:46:19.311Z,1.20
2019-02-10T19:49:28.851Z,1.30
2019-02-10T19:52:31.575Z,0.97
2019-02-10T19:55:18.547Z,0.87
2019-02-10T19:58:27.903Z,0.80
2019-02-10T20:01:26.890Z,0.90
2019-02-10T20:04:39.600Z,1.00
2019-02-10T20:07:38.476Z,0.90
2019-02-10T20:10:32.567Z,1.00
2019-02-10T20:13:25.744Z,0.97
2019-02-10T20:16:27.282Z,1.10
2019-02-10T20:19:30.988Z,0.80
2019-02-10T20:22:24.318Z,1.00
2019-02-10T20:25:19.145Z,1.00
2019-02-10T20:28:10.973Z,1.00
2019-02-10T20:34:07.772Z,1.00
2019-02-10T20:37:07.780Z,0.80
2019-02-10T20:39:57.123Z,1.20
2019-02-10T20:42:42.194Z,0.90
2019-02-10T20:45:36.272Z,1.20
2019-02-10T20:48:28.510Z,1.00
2019-02-10T20:51:20.783Z,1.00
2019-02-10T20:54:08.280Z,1.10
2019-02-10T20:56:49.776Z,1.00
2019-02-10T20:59:36.807Z,1.10
2019-02-10T21:02:35.153Z,1.00
2019-02-10T21:05:45.003Z,1.07
2019-02-10T21:08:38.056Z,1.00
2019-02-10T21:11:30.296Z,1.17
2019-02-10T21:14:30.783Z,0.90
2019-02-10T21:17:27.463Z,1.00
2019-02-10T21:20:10.782Z,1.00
2019-02-10T21:22:54.325Z,1.00
2019-02-10T21:25:38.165Z,1.00
2019-02-10T21:28:22.004Z,1.10
2019-02-10T21:31:33.288Z,0.87
2019-02-10T21:34:18.807Z,1.40
2019-02-10T21:37:17.789Z,1.00
2019-02-10T21:40:22.785Z,0.70
2019-02-10T21:43:32.346Z,1.10
2019-02-10T21:46:36.252Z,1.00
2019-02-10T21:49:13.787Z,1.00
2019-02-10T21:51:48.805Z,1.13
2019-02-10T21:54:24.014Z,1.20
2019-02-10T21:56:59.049Z,1.20
2019-02-10T21:59:33.469Z,1.43
2019-02-10T22:02:08.795Z,1.30
2019-02-10T22:04:42.790Z,1.17
2019-02-10T22:07:16.788Z,1.33
2019-02-10T22:09:52.814Z,1.27
2019-02-10T22:12:26.996Z,1.10
2019-02-10T22:15:02.794Z,0.90
2019-02-10T22:17:36.789Z,1.07
2019-02-10T22:20:13.790Z,0.90
2019-02-10T22:22:48.798Z,1.10
2019-02-10T22:25:27.285Z,0.93
2019-02-10T22:28:02.790Z,0.83
2019-02-10T22:30:37.788Z,1.20
2019-02-10T22:33:11.797Z,0.90
2019-02-10T22:35:46.392Z,0.90
2019-02-10T22:38:21.017Z,0.90
2019-02-10T22:40:57.279Z,1.20
2019-02-10T22:43:32.107Z,1.00
2019-02-10T22:46:08.371Z,1.27
2019-02-10T22:48:42.997Z,1.20
2019-02-10T22:51:19.056Z,1.10
2019-02-10T22:53:53.791Z,1.07
2019-02-10T22:56:28.300Z,1.13
2019-02-10T22:59:02.791Z,0.87
2019-02-10T23:01:38.805Z,0.80
2019-02-10T23:04:14.014Z,1.10
2019-02-10T23:06:48.792Z,0.80
2019-02-10T23:09:26.791Z,0.90
2019-02-10T23:12:01.164Z,0.80
2019-02-10T23:14:37.222Z,0.80
2019-02-10T23:17:19.017Z,0.80
2019-02-10T23:19:55.479Z,0.87
2019-02-10T23:22:30.308Z,0.80
2019-02-10T23:25:04.798Z,0.73
2019-02-10T23:27:38.875Z,0.80
2019-02-10T23:30:12.747Z,0.93
2019-02-10T23:32:47.370Z,0.90
2019-02-10T23:35:22.202Z,1.00
2019-02-10T23:37:58.901Z,0.80
2019-02-10T23:40:32.911Z,0.80
2019-02-10T23:43:07.095Z,0.80
2019-02-10T23:45:43.152Z,0.70
2019-02-10T23:48:17.890Z,0.80
2019-02-10T23:50:52.886Z,0.80
2019-02-10T23:53:26.895Z,0.87
2019-02-10T23:56:01.888Z,0.93
2019-02-10T23:58:36.476Z,1.00
